createdAt,value
2022-11-23T00:06:54.631Z,99467.34
2022-11-23T00:27:19.301Z,99481.81
2022-11-23T00:37:22.722Z,99491.00
2022-11-23T00:47:27.073Z,99501.59
2022-11-23T00:57:30.001Z,99500.69
2022-11-23T01:07:35.498Z,99503.09
2022-11-23T01:17:39.613Z,99507.78
2022-11-23T01:27:45.883Z,99511.84
2022-11-23T01:37:48.917Z,99520.00
2022-11-23T01:47:53.289Z,99529.34
2022-11-23T01:57:56.866Z,99535.38
2022-11-23T02:08:03.125Z,99540.66
2022-11-23T02:18:10.581Z,99544.44
2022-11-23T02:28:18.904Z,99546.28
2022-11-23T02:38:22.854Z,99555.16
2022-11-23T02:48:27.351Z,99551.69
2022-11-23T02:58:30.708Z,99557.28
2022-11-23T03:08:35.059Z,99559.97
2022-11-23T03:18:38.126Z,99560.41
2022-11-23T03:28:42.718Z,99566.59
2022-11-23T03:38:46.023Z,99567.19
2022-11-23T03:49:03.261Z,99561.00
2022-11-23T03:59:06.242Z,99559.31
2022-11-23T04:09:10.630Z,99569.72
2022-11-23T04:19:27.292Z,99569.59
2022-11-23T04:29:32.305Z,99554.97
2022-11-23T04:39:35.562Z,99562.81
2022-11-23T04:50:02.839Z,99568.69
2022-11-23T05:00:06.916Z,99568.47
2022-11-23T05:10:14.314Z,99557.19
2022-11-23T05:20:18.573Z,99555.22
2022-11-23T05:30:26.406Z,99557.19
2022-11-23T05:40:29.568Z,99558.38
2022-11-23T05:50:37.004Z,99559.81
2022-11-23T06:00:59.652Z,99570.75
2022-11-23T06:11:06.480Z,99571.97
2022-11-23T06:21:09.754Z,99572.31
2022-11-23T06:31:15.198Z,99564.66
2022-11-23T06:41:18.268Z,99576.09
2022-11-23T06:51:24.421Z,99583.03
2022-11-23T07:01:28.719Z,99597.78
2022-11-23T07:11:43.984Z,99620.19
2022-11-23T07:21:47.693Z,99626.00
2022-11-23T07:31:52.235Z,99637.78
2022-11-23T07:42:24.938Z,99641.13
2022-11-23T07:52:23.857Z,99661.97
2022-11-23T08:02:27.065Z,99670.53
2022-11-23T08:12:31.446Z,99664.66
2022-11-23T08:22:34.487Z,99665.63
2022-11-23T08:32:38.779Z,99665.78
2022-11-23T08:42:41.845Z,99671.63
2022-11-23T08:52:46.278Z,99680.03
2022-11-23T09:02:49.236Z,99671.19
2022-11-23T09:12:53.687Z,99666.75
2022-11-23T09:22:56.983Z,99664.41
2022-11-23T09:33:01.342Z,99647.88
2022-11-23T09:43:28.891Z,99637.31
2022-11-23T09:53:36.607Z,99622.00
2022-11-23T10:03:47.005Z,99610.25
2022-11-23T10:14:05.052Z,99588.81
2022-11-23T10:24:19.342Z,99589.47
2022-11-23T10:34:36.716Z,99596.91
2022-11-23T10:44:40.296Z,99587.31
2022-11-23T10:54:54.364Z,99580.09
2022-11-23T11:05:14.299Z,99559.84
2022-11-23T11:15:18.880Z,99551.56
2022-11-23T11:25:31.723Z,99546.50
2022-11-23T11:35:39.254Z,99527.72
2022-11-23T11:45:54.478Z,99506.28
2022-11-23T11:56:18.037Z,99481.19
2022-11-23T12:06:27.984Z,99478.25
2022-11-23T12:16:40.602Z,99476.31
2022-11-23T12:26:53.408Z,99468.59
2022-11-23T12:37:30.807Z,99445.56
2022-11-23T12:47:46.611Z,99449.28
2022-11-23T12:58:00.634Z,99439.66
2022-11-23T13:08:38.464Z,99428.34
2022-11-23T13:18:56.865Z,99438.94
2022-11-23T13:29:37.921Z,99456.94
2022-11-23T13:40:07.433Z,99475.84
2022-11-23T13:50:20.448Z,99490.22
2022-11-23T14:00:45.582Z,99510.19
2022-11-23T14:10:51.666Z,99515.66
2022-11-23T14:21:08.747Z,99542.47
2022-11-23T14:31:24.544Z,99548.63
2022-11-23T14:41:30.363Z,99564.16
2022-11-23T14:51:36.567Z,99581.19
2022-11-23T15:01:39.593Z,99588.13
2022-11-23T15:11:44.025Z,99597.88
2022-11-23T15:21:47.699Z,99582.34
2022-11-23T15:32:14.217Z,99587.28
2022-11-23T15:42:18.609Z,99568.44
2022-11-23T15:52:24.204Z,99613.03
2022-11-23T16:02:29.322Z,99623.28
2022-11-23T16:12:35.629Z,99646.16
2022-11-23T16:22:43.740Z,99667.75
2022-11-23T16:32:48.155Z,99690.66
2022-11-23T16:42:54.009Z,99708.91
2022-11-23T16:52:59.163Z,99704.09
2022-11-23T17:03:02.140Z,99726.84
2022-11-23T17:13:08.717Z,99730.25
2022-11-23T17:23:11.797Z,99755.19
2022-11-23T17:33:16.227Z,99765.06
2022-11-23T17:43:20.422Z,99766.72
2022-11-23T17:53:25.709Z,99786.47
2022-11-23T18:03:28.798Z,99817.66
2022-11-23T18:13:33.268Z,99836.00
2022-11-23T18:23:36.443Z,99848.09
2022-11-23T18:33:40.968Z,99856.97
2022-11-23T18:43:43.989Z,99871.72
2022-11-23T18:53:50.004Z,99867.41
2022-11-23T19:03:54.053Z,99894.94
2022-11-23T19:14:01.511Z,99902.06
2022-11-23T19:24:05.223Z,99922.88
2022-11-23T19:34:10.839Z,99938.72
2022-11-23T19:44:13.796Z,99937.09
2022-11-23T19:54:18.275Z,99941.31
2022-11-23T20:04:21.322Z,99968.00
2022-11-23T20:14:25.704Z,99952.06
2022-11-23T20:24:28.730Z,99983.38
2022-11-23T20:34:33.164Z,100005.09
2022-11-23T20:44:37.494Z,100004.09
2022-11-23T20:54:42.158Z,100022.44
2022-11-23T21:04:46.619Z,100024.41
2022-11-23T21:14:51.002Z,100020.38
2022-11-23T21:24:54.558Z,100032.66
2022-11-23T21:34:58.881Z,100044.34
2022-11-23T21:45:01.913Z,100057.72
2022-11-23T21:55:07.401Z,100080.06
2022-11-23T22:05:10.305Z,100093.09
2022-11-23T22:15:15.465Z,100101.97
2022-11-23T22:25:18.382Z,100106.16
2022-11-23T22:35:22.641Z,100121.91
2022-11-23T22:45:25.688Z,100133.28
2022-11-23T22:55:30.514Z,100150.66
2022-11-23T23:05:33.431Z,100174.72
2022-11-23T23:15:38.328Z,100170.94
2022-11-23T23:25:41.264Z,100174.50
2022-11-23T23:35:45.723Z,100172.84
2022-11-23T23:45:48.702Z,100189.09
2022-11-23T23:56:00.322Z,100188.59
